createdAt,value
2022-11-03T00:02:11.083Z,6.09
2022-11-03T00:04:39.177Z,6.20
2022-11-03T00:07:09.541Z,6.12
2022-11-03T00:09:39.112Z,6.14
2022-11-03T00:12:08.188Z,6.07
2022-11-03T00:14:36.217Z,6.01
2022-11-03T00:17:04.456Z,6.05
2022-11-03T00:19:32.450Z,6.08
2022-11-03T00:22:00.561Z,6.39
2022-11-03T00:24:28.568Z,6.25
2022-11-03T00:27:00.094Z,6.23
2022-11-03T00:29:28.129Z,6.05
2022-11-03T00:31:56.125Z,5.94
2022-11-03T00:34:24.236Z,5.98
2022-11-03T00:36:52.274Z,5.94
2022-11-03T00:39:20.426Z,5.88
2022-11-03T00:41:53.545Z,5.56
2022-11-03T00:44:22.908Z,5.49
2022-11-03T00:46:50.995Z,5.45
2022-11-03T00:49:18.950Z,5.44
2022-11-03T00:51:47.006Z,5.49
2022-11-03T00:54:14.972Z,5.55
2022-11-03T00:56:44.225Z,5.56
2022-11-03T00:59:12.336Z,5.89
2022-11-03T01:01:46.606Z,5.77
2022-11-03T01:04:33.723Z,6.42
2022-11-03T01:07:01.936Z,5.97
2022-11-03T01:09:30.955Z,6.00
2022-11-03T01:11:59.968Z,5.40
2022-11-03T01:14:28.964Z,5.35
2022-11-03T01:16:58.409Z,5.18
2022-11-03T01:19:26.793Z,5.09
2022-11-03T01:21:54.837Z,5.22
2022-11-03T01:24:22.940Z,5.15
2022-11-03T01:26:51.133Z,5.21
2022-11-03T01:29:19.312Z,5.20
2022-11-03T01:31:47.425Z,5.07
2022-11-03T01:34:17.312Z,5.22
2022-11-03T01:36:45.733Z,5.23
2022-11-03T01:39:14.232Z,4.97
2022-11-03T01:41:43.003Z,4.86
2022-11-03T01:44:29.729Z,4.95
2022-11-03T01:47:02.486Z,5.24
2022-11-03T01:49:34.521Z,5.07
2022-11-03T01:52:04.530Z,5.19
2022-11-03T01:54:32.865Z,5.40
2022-11-03T01:57:01.745Z,5.60
2022-11-03T01:59:29.889Z,5.79
2022-11-03T02:01:57.971Z,5.81
2022-11-03T02:04:30.638Z,5.92
2022-11-03T02:07:03.981Z,5.96
2022-11-03T02:09:32.160Z,6.03
2022-11-03T02:12:09.084Z,6.11
2022-11-03T02:14:38.650Z,5.97
2022-11-03T02:17:08.261Z,5.96
2022-11-03T02:19:38.903Z,6.06
2022-11-03T02:22:15.913Z,5.67
2022-11-03T02:24:53.981Z,5.53
2022-11-03T02:27:24.140Z,5.54
2022-11-03T02:29:52.254Z,5.41
2022-11-03T02:32:26.258Z,5.59
2022-11-03T02:34:57.086Z,5.77
2022-11-03T02:37:28.151Z,5.80
2022-11-03T02:39:59.821Z,5.89
2022-11-03T02:42:31.776Z,5.82
2022-11-03T02:45:01.791Z,5.71
2022-11-03T02:47:31.364Z,5.57
2022-11-03T02:49:59.375Z,5.72
2022-11-03T02:52:37.872Z,5.69
2022-11-03T02:55:08.797Z,5.51
2022-11-03T02:57:41.585Z,5.43
2022-11-03T03:00:12.418Z,5.50
2022-11-03T03:02:45.069Z,5.67
2022-11-03T03:05:14.485Z,5.56
2022-11-03T03:07:44.410Z,5.74
2022-11-03T03:10:15.682Z,5.77
2022-11-03T03:12:50.214Z,6.02
2022-11-03T03:15:19.584Z,5.84
2022-11-03T03:17:51.806Z,5.53
2022-11-03T03:20:21.962Z,5.40
2022-11-03T03:22:52.611Z,5.32
2022-11-03T03:25:23.939Z,5.28
2022-11-03T03:27:56.606Z,5.29
2022-11-03T03:30:24.751Z,5.22
2022-11-03T03:32:53.491Z,5.15
2022-11-03T03:35:24.787Z,5.13
2022-11-03T03:37:54.351Z,5.22
2022-11-03T03:40:24.141Z,5.29
2022-11-03T03:42:54.110Z,5.31
2022-11-03T03:45:22.374Z,5.42
2022-11-03T03:47:54.906Z,5.23
2022-11-03T03:50:27.405Z,5.18
2022-11-03T03:52:56.350Z,5.10
2022-11-03T03:55:27.640Z,4.95
2022-11-03T03:57:59.519Z,4.88
2022-11-03T04:00:28.507Z,4.97
2022-11-03T04:02:57.896Z,4.96
2022-11-03T04:05:25.979Z,5.09
2022-11-03T04:07:53.957Z,5.20
2022-11-03T04:10:23.130Z,5.63
2022-11-03T04:13:09.262Z,5.37
2022-11-03T04:15:58.622Z,5.37
2022-11-03T04:18:44.223Z,5.30
2022-11-03T04:21:31.177Z,5.23
2022-11-03T04:24:00.280Z,5.10
2022-11-03T04:26:29.085Z,4.97
2022-11-03T04:28:58.179Z,4.92
2022-11-03T04:31:29.442Z,4.82
2022-11-03T04:33:57.558Z,4.90
2022-11-03T04:36:26.175Z,4.96
2022-11-03T04:38:54.289Z,5.35
2022-11-03T04:41:23.832Z,5.85
2022-11-03T04:43:52.352Z,5.32
2022-11-03T04:46:24.929Z,5.26
2022-11-03T04:48:55.233Z,5.00
2022-11-03T04:51:24.860Z,4.93
2022-11-03T04:53:55.172Z,4.81
2022-11-03T04:56:24.565Z,4.89
2022-11-03T04:58:53.262Z,4.76
2022-11-03T05:01:24.395Z,4.65
2022-11-03T05:03:53.692Z,4.82
2022-11-03T05:06:23.925Z,4.93
2022-11-03T05:08:53.445Z,4.78
2022-11-03T05:11:25.701Z,4.79
2022-11-03T05:13:54.177Z,4.72
2022-11-03T05:16:24.581Z,4.67
2022-11-03T05:18:52.862Z,4.75
2022-11-03T05:21:22.923Z,4.69
2022-11-03T05:23:54.107Z,4.72
2022-11-03T05:26:25.449Z,4.73
2022-11-03T05:28:56.437Z,4.81
2022-11-03T05:31:25.434Z,5.02
2022-11-03T05:33:58.280Z,4.95
2022-11-03T05:36:27.174Z,5.03
2022-11-03T05:38:59.943Z,5.01
2022-11-03T05:41:29.709Z,5.05
2022-11-03T05:43:59.548Z,5.06
2022-11-03T05:46:28.751Z,5.13
2022-11-03T05:48:57.314Z,5.12
2022-11-03T05:54:23.513Z,5.25
2022-11-03T05:56:51.578Z,5.22
2022-11-03T05:59:23.906Z,5.25
2022-11-03T06:01:52.731Z,5.27
2022-11-03T06:04:22.853Z,5.24
2022-11-03T06:06:53.661Z,5.22
2022-11-03T06:09:25.514Z,5.22
2022-11-03T06:11:55.054Z,5.25
2022-11-03T06:14:24.798Z,5.21
2022-11-03T06:16:53.804Z,5.11
2022-11-03T06:19:23.338Z,5.09
2022-11-03T06:21:52.627Z,5.11
2022-11-03T06:24:22.243Z,5.11
2022-11-03T06:26:52.640Z,5.06
2022-11-03T06:29:21.425Z,5.14
2022-11-03T06:31:50.740Z,5.23
2022-11-03T06:34:27.038Z,5.60
2022-11-03T06:36:57.442Z,5.41
2022-11-03T06:39:25.749Z,5.33
2022-11-03T06:41:55.160Z,5.36
2022-11-03T06:44:24.885Z,5.36
2022-11-03T06:46:53.093Z,6.07
2022-11-03T06:49:30.407Z,5.48
2022-11-03T06:52:00.127Z,5.49
2022-11-03T06:54:28.206Z,5.71
2022-11-03T06:56:57.664Z,5.81
2022-11-03T06:59:25.690Z,5.88
2022-11-03T07:01:55.524Z,5.96
2022-11-03T07:04:24.705Z,5.97
2022-11-03T07:06:53.758Z,6.03
2022-11-03T07:09:25.951Z,6.15
2022-11-03T07:11:54.844Z,6.37
2022-11-03T07:14:25.846Z,7.03
2022-11-03T07:16:55.457Z,6.55
2022-11-03T07:19:25.885Z,6.62
2022-11-03T07:21:55.115Z,6.66
2022-11-03T07:24:24.996Z,6.73
2022-11-03T07:26:55.762Z,7.02
2022-11-03T07:29:27.940Z,7.15
2022-11-03T07:31:56.221Z,7.42
2022-11-03T07:34:26.296Z,7.52
2022-11-03T07:36:56.141Z,8.24
2022-11-03T07:39:24.551Z,7.77
2022-11-03T07:41:52.557Z,8.55
2022-11-03T07:44:21.622Z,8.68
2022-11-03T07:46:51.577Z,8.30
2022-11-03T07:49:25.598Z,8.65
2022-11-03T07:51:56.773Z,8.89
2022-11-03T07:54:26.963Z,8.59
2022-11-03T07:56:57.104Z,8.52
2022-11-03T07:59:27.820Z,8.46
2022-11-03T08:01:58.516Z,7.57
2022-11-03T08:04:28.413Z,7.81
2022-11-03T08:06:56.435Z,7.71
2022-11-03T08:09:24.547Z,7.94
2022-11-03T08:11:52.562Z,7.78
2022-11-03T08:14:20.588Z,8.03
2022-11-03T08:16:48.557Z,8.22
2022-11-03T08:19:17.899Z,8.33
2022-11-03T08:21:45.875Z,8.40
2022-11-03T08:24:13.886Z,8.52
2022-11-03T08:26:41.858Z,8.65
2022-11-03T08:29:09.977Z,8.95
2022-11-03T08:31:38.039Z,9.07
2022-11-03T08:34:06.076Z,9.25
2022-11-03T08:36:35.412Z,9.47
2022-11-03T08:39:03.394Z,9.53
2022-11-03T08:41:31.871Z,10.22
2022-11-03T08:44:00.008Z,9.49
2022-11-03T08:46:28.431Z,9.74
2022-11-03T08:48:56.776Z,9.85
2022-11-03T08:51:25.299Z,9.44
2022-11-03T08:53:55.122Z,9.77
2022-11-03T08:56:23.524Z,9.60
2022-11-03T08:58:51.946Z,9.93
2022-11-03T09:01:20.244Z,10.35
2022-11-03T09:03:48.639Z,10.62
2022-11-03T09:06:17.032Z,10.30
2022-11-03T09:11:37.537Z,10.62
2022-11-03T09:14:05.513Z,11.00
2022-11-03T09:16:33.569Z,11.69
2022-11-03T09:19:01.555Z,11.75
2022-11-03T09:21:29.528Z,12.01
2022-11-03T09:23:59.405Z,11.49
2022-11-03T09:26:27.469Z,11.88
2022-11-03T09:28:56.820Z,12.05
2022-11-03T09:31:28.470Z,11.90
2022-11-03T09:33:56.575Z,12.07
2022-11-03T09:36:24.575Z,11.98
2022-11-03T09:38:52.552Z,12.26
2022-11-03T09:41:27.778Z,12.18
2022-11-03T09:44:04.737Z,12.41
2022-11-03T09:46:32.875Z,12.15
2022-11-03T09:49:00.835Z,12.26
2022-11-03T09:51:29.318Z,12.62
2022-11-03T09:53:58.638Z,12.21
2022-11-03T09:56:27.171Z,12.73
2022-11-03T09:58:55.151Z,12.74
2022-11-03T10:01:24.902Z,12.49
2022-11-03T10:03:53.178Z,12.70
2022-11-03T10:06:21.353Z,12.24
2022-11-03T10:08:50.122Z,13.05
2022-11-03T10:11:18.692Z,13.00
2022-11-03T10:13:48.858Z,12.61
2022-11-03T10:16:18.666Z,12.96
2022-11-03T10:18:48.224Z,13.07
2022-11-03T10:21:17.234Z,12.88
2022-11-03T10:23:45.200Z,13.36
2022-11-03T10:26:16.286Z,13.65
2022-11-03T10:28:58.262Z,13.02
2022-11-03T10:31:32.654Z,13.59
2022-11-03T10:34:01.989Z,13.36
2022-11-03T10:36:30.900Z,13.36
2022-11-03T10:39:21.266Z,13.23
2022-11-03T10:41:56.434Z,13.18
2022-11-03T10:44:26.765Z,13.88
2022-11-03T10:46:58.539Z,13.04
2022-11-03T10:49:28.281Z,13.30
2022-11-03T10:52:00.857Z,13.22
2022-11-03T10:54:29.585Z,13.12
2022-11-03T10:56:58.178Z,13.46
2022-11-03T10:59:32.125Z,13.66
2022-11-03T11:02:00.892Z,13.55
2022-11-03T11:04:30.485Z,13.75
2022-11-03T11:06:58.474Z,13.65
2022-11-03T11:09:27.457Z,13.45
2022-11-03T11:12:02.548Z,13.81
2022-11-03T11:14:39.124Z,13.41
2022-11-03T11:17:07.195Z,13.87
2022-11-03T11:19:52.387Z,13.54
2022-11-03T11:22:23.259Z,13.85
2022-11-03T11:24:59.059Z,13.70
2022-11-03T11:27:45.845Z,14.16
2022-11-03T11:30:28.796Z,14.50
2022-11-03T11:32:59.938Z,14.29
2022-11-03T11:35:46.829Z,13.86
2022-11-03T11:38:33.473Z,14.43
2022-11-03T11:41:02.814Z,14.27
2022-11-03T11:43:31.275Z,14.39
2022-11-03T11:46:18.150Z,14.29
2022-11-03T11:48:46.262Z,14.17
2022-11-03T11:51:14.803Z,13.89
2022-11-03T11:54:17.020Z,13.88
2022-11-03T11:56:48.569Z,14.14
2022-11-03T11:59:22.982Z,14.19
2022-11-03T12:01:56.583Z,14.34
2022-11-03T12:04:26.121Z,14.28
2022-11-03T12:06:55.677Z,14.45
2022-11-03T12:09:24.767Z,14.00
2022-11-03T12:11:56.466Z,14.03
2022-11-03T12:14:33.693Z,13.94
2022-11-03T12:17:16.819Z,14.08
2022-11-03T12:19:45.834Z,13.98
2022-11-03T12:22:33.855Z,14.12
2022-11-03T12:25:03.884Z,14.28
2022-11-03T12:27:44.009Z,13.88
2022-11-03T12:30:19.586Z,13.84
2022-11-03T12:32:48.049Z,13.75
2022-11-03T12:35:16.116Z,14.10
2022-11-03T12:37:44.107Z,14.02
2022-11-03T12:40:13.043Z,13.75
2022-11-03T12:42:44.868Z,14.02
2022-11-03T12:45:14.201Z,13.94
2022-11-03T12:47:44.595Z,14.05
2022-11-03T12:50:13.059Z,13.96
2022-11-03T12:52:41.018Z,13.86
2022-11-03T12:55:09.581Z,14.23
2022-11-03T12:57:37.585Z,14.30
2022-11-03T13:00:07.897Z,14.32
2022-11-03T13:02:36.126Z,14.61
2022-11-03T13:05:04.498Z,14.39
2022-11-03T13:07:34.877Z,14.42
2022-11-03T13:10:04.392Z,14.53
2022-11-03T13:12:32.400Z,14.26
2022-11-03T13:15:01.086Z,14.46
2022-11-03T13:17:40.390Z,14.73
2022-11-03T13:20:18.618Z,14.11
2022-11-03T13:22:46.894Z,14.16
2022-11-03T13:25:15.093Z,14.27
2022-11-03T13:27:43.132Z,14.20
2022-11-03T13:30:11.997Z,14.19
2022-11-03T13:32:42.066Z,14.01
2022-11-03T13:35:13.749Z,14.17
2022-11-03T13:37:42.200Z,14.18
2022-11-03T13:40:35.751Z,14.03
2022-11-03T13:43:01.074Z,14.22
2022-11-03T13:45:29.104Z,13.54
2022-11-03T13:50:46.644Z,13.15
2022-11-03T13:56:06.920Z,13.15
2022-11-03T14:01:24.984Z,13.03
2022-11-03T14:06:42.489Z,12.96
2022-11-03T14:09:10.590Z,12.73
2022-11-03T14:11:56.139Z,12.87
2022-11-03T14:14:24.123Z,12.78
2022-11-03T14:16:52.207Z,12.68
2022-11-03T14:19:21.615Z,12.63
2022-11-03T14:21:49.682Z,12.60
2022-11-03T14:24:17.948Z,12.56
2022-11-03T14:26:47.999Z,12.54
2022-11-03T14:29:16.022Z,12.57
2022-11-03T14:31:44.027Z,12.64
2022-11-03T14:34:12.025Z,13.05
2022-11-03T14:36:42.055Z,12.81
2022-11-03T14:39:10.242Z,13.13
2022-11-03T14:41:56.040Z,13.03
2022-11-03T14:44:24.125Z,12.98
2022-11-03T14:46:54.213Z,12.92
2022-11-03T14:49:22.506Z,13.01
2022-11-03T14:51:52.073Z,12.73
2022-11-03T14:54:20.099Z,12.57
2022-11-03T14:56:50.564Z,12.44
2022-11-03T14:59:18.642Z,12.39
2022-11-03T15:01:47.164Z,12.27
2022-11-03T15:04:15.350Z,12.22
2022-11-03T15:06:43.357Z,12.11
2022-11-03T15:09:14.605Z,12.07
2022-11-03T15:11:45.373Z,11.96
2022-11-03T15:14:13.697Z,12.01
2022-11-03T15:16:41.773Z,12.22
2022-11-03T15:19:11.896Z,12.43
2022-11-03T15:21:39.875Z,12.38
2022-11-03T15:26:57.705Z,12.62
2022-11-03T15:29:25.879Z,12.43
2022-11-03T15:31:53.864Z,12.42
2022-11-03T15:34:23.969Z,12.58
2022-11-03T15:36:51.979Z,12.73
2022-11-03T15:39:20.232Z,12.67
2022-11-03T15:41:48.210Z,12.69
2022-11-03T15:44:17.567Z,12.58
2022-11-03T15:46:45.534Z,12.37
2022-11-03T15:49:13.566Z,12.27
2022-11-03T15:51:41.535Z,12.16
2022-11-03T15:54:09.549Z,11.87
2022-11-03T15:56:37.540Z,11.45
2022-11-03T15:59:07.916Z,11.48
2022-11-03T16:01:37.875Z,11.45
2022-11-03T16:04:06.227Z,11.61
2022-11-03T16:07:01.615Z,11.65
2022-11-03T16:09:23.181Z,11.89
2022-11-03T16:11:51.477Z,11.72
2022-11-03T16:14:19.848Z,11.78
2022-11-03T16:16:49.450Z,11.91
2022-11-03T16:19:17.804Z,11.93
2022-11-03T16:21:46.029Z,11.85
2022-11-03T16:24:16.344Z,11.90
2022-11-03T16:26:44.631Z,11.74
2022-11-03T16:29:12.901Z,11.56
2022-11-03T16:31:41.195Z,11.28
2022-11-03T16:34:10.897Z,11.25
2022-11-03T16:36:39.122Z,11.58
2022-11-03T16:39:07.394Z,11.76
2022-11-03T16:41:35.638Z,12.14
2022-11-03T16:44:03.997Z,12.07
2022-11-03T16:46:34.373Z,11.78
2022-11-03T16:49:02.635Z,11.99
2022-11-03T16:51:32.261Z,11.34
2022-11-03T16:54:00.492Z,11.19
2022-11-03T16:56:28.746Z,11.22
2022-11-03T16:58:57.033Z,11.28
2022-11-03T17:01:25.190Z,11.31
2022-11-03T17:03:55.591Z,11.57
2022-11-03T17:06:23.576Z,11.81
2022-11-03T17:08:53.800Z,12.10
2022-11-03T17:11:35.899Z,11.71
2022-11-03T17:14:04.847Z,11.52
2022-11-03T17:16:33.105Z,11.92
2022-11-03T17:19:01.050Z,11.73
2022-11-03T17:21:31.849Z,12.06
2022-11-03T17:24:01.321Z,12.03
2022-11-03T17:26:38.910Z,11.51
2022-11-03T17:29:16.416Z,11.97
2022-11-03T17:31:44.486Z,11.46
2022-11-03T17:34:12.951Z,11.63
2022-11-03T17:36:41.234Z,11.66
2022-11-03T17:39:13.816Z,11.85
2022-11-03T17:41:41.825Z,12.02
2022-11-03T17:44:10.989Z,11.93
2022-11-03T17:46:39.107Z,12.28
2022-11-03T17:49:09.522Z,12.32
2022-11-03T17:51:41.646Z,12.27
2022-11-03T17:54:13.584Z,12.20
2022-11-03T17:56:41.551Z,12.25
2022-11-03T17:59:10.142Z,12.35
2022-11-03T18:01:38.252Z,12.17
2022-11-03T18:04:11.293Z,12.16
2022-11-03T18:06:42.304Z,12.26
2022-11-03T18:09:11.698Z,12.15
2022-11-03T18:11:58.704Z,12.08
2022-11-03T18:14:27.987Z,12.08
2022-11-03T18:16:56.250Z,12.17
2022-11-03T18:19:26.666Z,12.44
2022-11-03T18:21:54.615Z,12.67
2022-11-03T18:24:23.950Z,12.13
2022-11-03T18:26:54.302Z,12.49
2022-11-03T18:29:24.398Z,12.35
2022-11-03T18:31:52.376Z,12.57
2022-11-03T18:34:21.971Z,11.99
2022-11-03T18:36:50.033Z,12.10
2022-11-03T18:39:20.412Z,12.22
2022-11-03T18:41:49.762Z,12.46
2022-11-03T18:44:19.484Z,12.45
2022-11-03T18:46:47.602Z,12.24
2022-11-03T18:49:15.775Z,12.56
2022-11-03T18:51:45.770Z,12.17
2022-11-03T18:54:15.213Z,12.08
2022-11-03T18:56:43.332Z,11.91
2022-11-03T18:59:18.949Z,11.74
2022-11-03T19:01:47.203Z,12.00
2022-11-03T19:04:15.859Z,11.74
2022-11-03T19:06:44.396Z,11.92
2022-11-03T19:09:14.286Z,11.98
2022-11-03T19:11:43.142Z,12.07
2022-11-03T19:14:14.411Z,12.05
2022-11-03T19:17:02.059Z,12.13
2022-11-03T19:19:32.617Z,11.56
2022-11-03T19:22:00.689Z,11.81
2022-11-03T19:24:28.755Z,11.76
2022-11-03T19:26:58.096Z,11.92
2022-11-03T19:29:29.875Z,12.11
2022-11-03T19:31:59.402Z,12.04
2022-11-03T19:34:28.870Z,11.94
2022-11-03T19:36:57.785Z,12.15
2022-11-03T19:39:27.922Z,12.62
2022-11-03T19:42:14.189Z,12.04
2022-11-03T19:44:42.234Z,11.76
2022-11-03T19:47:15.334Z,12.14
2022-11-03T19:49:43.449Z,11.68
2022-11-03T19:52:12.978Z,11.88
2022-11-03T19:54:41.648Z,11.85
2022-11-03T19:57:11.531Z,12.00
2022-11-03T19:59:39.716Z,12.09
2022-11-03T20:02:08.231Z,12.03
2022-11-03T20:04:37.664Z,11.72
2022-11-03T20:07:06.541Z,12.00
2022-11-03T20:09:34.711Z,11.86
2022-11-03T20:12:07.224Z,11.61
2022-11-03T20:14:35.207Z,11.52
2022-11-03T20:17:11.277Z,11.47
2022-11-03T20:19:42.778Z,11.85
2022-11-03T20:22:14.479Z,11.61
2022-11-03T20:24:42.726Z,11.57
2022-11-03T20:27:11.553Z,11.36
2022-11-03T20:29:40.247Z,11.40
2022-11-03T20:32:11.088Z,11.53
2022-11-03T20:34:39.127Z,11.88
2022-11-03T20:37:15.389Z,11.58
2022-11-03T20:39:44.053Z,11.60
2022-11-03T20:42:18.817Z,11.67
2022-11-03T20:44:46.995Z,11.63
2022-11-03T20:47:15.060Z,11.74
2022-11-03T20:49:43.176Z,11.98
2022-11-03T20:52:13.671Z,12.06
2022-11-03T20:54:43.136Z,11.88
2022-11-03T20:57:12.439Z,11.89
2022-11-03T20:59:41.174Z,11.69
2022-11-03T21:02:10.987Z,11.63
2022-11-03T21:04:39.063Z,11.91
2022-11-03T21:07:11.457Z,11.57
2022-11-03T21:09:40.966Z,11.43
2022-11-03T21:12:11.096Z,11.38
2022-11-03T21:14:39.142Z,11.43
2022-11-03T21:17:31.684Z,11.57
2022-11-03T21:20:01.849Z,11.51
2022-11-03T21:25:23.274Z,11.47
2022-11-03T21:27:54.940Z,11.80
2022-11-03T21:30:23.430Z,11.86
2022-11-03T21:32:51.585Z,11.89
2022-11-03T21:35:20.573Z,11.95
2022-11-03T21:37:50.642Z,11.96
2022-11-03T21:40:18.921Z,11.76
2022-11-03T21:43:08.112Z,11.84
2022-11-03T21:45:36.178Z,11.78
2022-11-03T21:48:22.594Z,11.73
2022-11-03T21:50:50.934Z,11.68
2022-11-03T21:53:18.941Z,11.64
2022-11-03T21:55:48.274Z,11.67
2022-11-03T21:58:17.627Z,11.51
2022-11-03T22:02:38.661Z,11.56
2022-11-03T22:05:10.837Z,11.61
2022-11-03T22:07:39.212Z,11.47
2022-11-03T22:10:07.423Z,11.51
2022-11-03T22:12:35.658Z,11.63
2022-11-03T22:15:21.160Z,11.73
2022-11-03T22:17:50.562Z,11.62
2022-11-03T22:20:36.291Z,11.52
2022-11-03T22:23:21.957Z,11.65
2022-11-03T22:26:07.313Z,11.48
2022-11-03T22:28:35.474Z,11.47
2022-11-03T22:31:21.977Z,11.58
2022-11-03T22:34:08.718Z,11.53
2022-11-03T22:36:36.845Z,11.49
2022-11-03T22:39:30.840Z,11.56
2022-11-03T22:42:16.225Z,11.61
2022-11-03T22:45:01.761Z,11.40
2022-11-03T22:47:29.727Z,11.46
2022-11-03T22:50:01.416Z,11.17
2022-11-03T22:52:29.428Z,11.58
2022-11-03T22:54:56.562Z,11.49
2022-11-03T22:57:24.693Z,11.45
2022-11-03T22:59:52.701Z,11.49
2022-11-03T23:02:20.834Z,11.36
2022-11-03T23:04:48.886Z,11.18
2022-11-03T23:07:18.208Z,11.44
2022-11-03T23:09:46.392Z,11.36
2022-11-03T23:12:14.367Z,11.13
2022-11-03T23:14:59.183Z,11.15
2022-11-03T23:17:48.143Z,11.33
2022-11-03T23:20:33.438Z,11.33
2022-11-03T23:23:02.838Z,11.22
2022-11-03T23:25:31.265Z,11.41
2022-11-03T23:27:59.242Z,11.25
2022-11-03T23:30:27.178Z,11.45
2022-11-03T23:32:55.119Z,11.24
2022-11-03T23:35:23.118Z,11.30
2022-11-03T23:37:51.068Z,11.33
2022-11-03T23:40:21.533Z,11.26
2022-11-03T23:42:49.654Z,11.38
2022-11-03T23:45:35.214Z,11.50
2022-11-03T23:48:20.825Z,11.44
2022-11-03T23:50:48.792Z,11.43
2022-11-03T23:53:16.763Z,11.53
2022-11-03T23:55:59.975Z,11.30
2022-11-03T23:58:28.318Z,11.42
